createdAt,value
2023-05-21T00:02:04.271Z,78.90
2023-05-21T00:04:32.337Z,79.00
2023-05-21T00:07:01.673Z,80.80
2023-05-21T00:09:31.674Z,80.90
2023-05-21T00:12:00.362Z,80.40
2023-05-21T00:14:30.946Z,79.80
2023-05-21T00:17:04.663Z,80.30
2023-05-21T00:19:34.002Z,79.80
2023-05-21T00:22:04.522Z,80.60
2023-05-21T00:24:32.453Z,80.50
2023-05-21T00:27:01.255Z,80.40
2023-05-21T00:29:30.076Z,80.10
2023-05-21T00:31:58.530Z,81.80
2023-05-21T00:34:26.505Z,80.80
2023-05-21T00:36:55.956Z,79.90
2023-05-21T00:39:23.317Z,81.50
2023-05-21T00:41:50.316Z,81.30
2023-05-21T00:44:18.343Z,80.70
2023-05-21T00:46:45.729Z,80.90
2023-05-21T00:49:12.458Z,81.70
2023-05-21T00:51:40.659Z,80.90
2023-05-21T00:54:08.238Z,81.70
2023-05-21T00:56:36.278Z,81.10
2023-05-21T00:59:05.529Z,82.50
2023-05-21T01:04:29.569Z,81.50
2023-05-21T01:06:58.542Z,82.80
2023-05-21T01:09:26.938Z,82.60
2023-05-21T01:11:54.544Z,81.90
2023-05-21T01:14:22.723Z,82.50
2023-05-21T01:16:50.682Z,81.50
2023-05-21T01:19:20.491Z,82.50
2023-05-21T01:21:51.081Z,82.50
2023-05-21T01:24:18.742Z,82.50
2023-05-21T01:26:47.584Z,82.80
2023-05-21T01:29:17.249Z,83.20
2023-05-21T01:31:56.909Z,82.60
2023-05-21T01:34:30.388Z,83.00
2023-05-21T01:37:08.762Z,83.60
2023-05-21T01:39:38.943Z,83.80
2023-05-21T01:42:08.034Z,82.60
2023-05-21T01:44:35.352Z,83.00
2023-05-21T01:47:03.276Z,84.30
2023-05-21T01:49:30.283Z,82.70
2023-05-21T01:51:57.484Z,83.70
2023-05-21T01:54:24.425Z,82.60
2023-05-21T01:56:51.462Z,83.20
2023-05-21T01:59:18.589Z,82.90
2023-05-21T02:01:47.773Z,83.70
2023-05-21T02:04:14.512Z,83.70
2023-05-21T02:06:41.999Z,83.60
2023-05-21T02:09:10.306Z,83.50
2023-05-21T02:11:37.241Z,83.00
2023-05-21T02:14:04.130Z,83.50
2023-05-21T02:16:32.144Z,83.80
2023-05-21T02:19:00.634Z,83.70
2023-05-21T02:21:27.774Z,83.60
2023-05-21T02:23:54.698Z,84.80
2023-05-21T02:26:22.755Z,83.70
2023-05-21T02:28:50.493Z,83.10
2023-05-21T02:31:17.422Z,83.70
2023-05-21T02:33:44.307Z,83.30
2023-05-21T02:36:15.726Z,83.90
2023-05-21T02:38:43.974Z,83.60
2023-05-21T02:41:14.043Z,83.30
2023-05-21T02:43:41.176Z,83.70
2023-05-21T02:46:11.352Z,83.20
2023-05-21T02:48:38.986Z,83.80
2023-05-21T02:51:06.269Z,83.90
2023-05-21T02:53:34.253Z,83.90
2023-05-21T02:56:01.133Z,83.40
2023-05-21T02:58:28.053Z,83.70
2023-05-21T03:00:55.098Z,83.60
2023-05-21T03:03:22.141Z,83.30
2023-05-21T03:05:49.002Z,83.50
2023-05-21T03:08:16.062Z,84.70
2023-05-21T03:10:44.507Z,83.30
2023-05-21T03:13:12.549Z,84.80
2023-05-21T03:15:39.908Z,84.00
2023-05-21T03:18:07.994Z,84.30
2023-05-21T03:20:35.423Z,84.60
2023-05-21T03:23:04.374Z,84.90
2023-05-21T03:25:37.233Z,84.70
2023-05-21T03:28:04.528Z,84.70
2023-05-21T03:30:31.260Z,85.00
2023-05-21T03:32:58.793Z,85.10
2023-05-21T03:35:26.740Z,85.40
2023-05-21T03:37:53.834Z,84.30
2023-05-21T03:40:22.404Z,84.50
2023-05-21T03:42:49.165Z,85.10
2023-05-21T03:45:18.857Z,84.90
2023-05-21T03:47:46.094Z,85.10
2023-05-21T03:50:13.065Z,84.20
2023-05-21T03:52:40.993Z,85.60
2023-05-21T03:55:10.267Z,84.70
2023-05-21T03:57:37.855Z,85.30
2023-05-21T04:00:06.599Z,85.00
2023-05-21T04:02:33.559Z,85.00
2023-05-21T04:05:00.305Z,85.80
2023-05-21T04:07:30.251Z,85.10
2023-05-21T04:09:57.323Z,85.40
2023-05-21T04:12:24.246Z,84.80
2023-05-21T04:14:52.790Z,85.40
2023-05-21T04:17:20.784Z,85.00
2023-05-21T04:19:48.957Z,85.60
2023-05-21T04:22:18.362Z,85.40
2023-05-21T04:24:47.492Z,85.50
2023-05-21T04:27:16.735Z,85.30
2023-05-21T04:29:43.952Z,85.50
2023-05-21T04:32:11.929Z,85.40
2023-05-21T04:34:42.218Z,85.60
2023-05-21T04:37:09.394Z,85.60
2023-05-21T04:39:39.336Z,85.40
2023-05-21T04:42:11.744Z,85.30
2023-05-21T04:44:40.512Z,85.40
2023-05-21T04:47:08.420Z,85.20
2023-05-21T04:49:35.523Z,85.30
2023-05-21T04:52:02.680Z,85.00
2023-05-21T04:54:29.623Z,85.10
2023-05-21T04:56:58.119Z,84.80
2023-05-21T04:59:25.026Z,84.70
2023-05-21T05:01:51.763Z,84.50
2023-05-21T05:04:18.711Z,84.20
2023-05-21T05:06:45.498Z,84.20
2023-05-21T05:09:12.261Z,84.00
2023-05-21T05:11:42.489Z,83.90
2023-05-21T05:14:10.807Z,83.70
2023-05-21T05:16:38.189Z,83.20
2023-05-21T05:19:05.494Z,82.70
2023-05-21T05:21:34.090Z,82.20
2023-05-21T05:24:00.929Z,81.50
2023-05-21T05:26:28.099Z,80.60
2023-05-21T05:28:58.869Z,80.40
2023-05-21T05:31:28.362Z,78.30
2023-05-21T05:33:58.327Z,78.50
2023-05-21T05:36:27.071Z,77.00
2023-05-21T05:38:54.217Z,73.40
2023-05-21T05:41:21.157Z,71.10
2023-05-21T05:43:48.182Z,72.00
2023-05-21T05:46:15.171Z,66.90
2023-05-21T05:48:43.231Z,66.80
2023-05-21T05:51:09.993Z,64.10
2023-05-21T05:53:37.124Z,63.00
2023-05-21T05:56:04.166Z,61.10
2023-05-21T05:58:31.221Z,60.80
2023-05-21T06:00:59.377Z,59.70
2023-05-21T06:03:27.171Z,59.40
2023-05-21T06:05:56.533Z,59.60
2023-05-21T06:08:23.600Z,59.10
2023-05-21T06:10:52.451Z,58.30
2023-05-21T06:13:19.462Z,58.20
2023-05-21T06:15:46.662Z,57.50
2023-05-21T06:18:13.746Z,57.40
2023-05-21T06:20:40.986Z,58.70
2023-05-21T06:23:10.022Z,59.00
2023-05-21T06:25:38.256Z,57.50
2023-05-21T06:28:05.325Z,58.10
2023-05-21T06:30:31.995Z,59.20
2023-05-21T06:32:59.035Z,58.50
2023-05-21T06:35:25.825Z,57.20
2023-05-21T06:37:52.479Z,55.00
2023-05-21T06:40:19.192Z,54.10
2023-05-21T06:42:47.268Z,54.00
2023-05-21T06:45:14.017Z,55.20
2023-05-21T06:47:41.298Z,54.60
2023-05-21T06:50:08.170Z,54.40
2023-05-21T06:52:35.148Z,53.80
2023-05-21T06:55:02.997Z,54.70
2023-05-21T06:57:29.876Z,53.60
2023-05-21T06:59:56.533Z,56.30
2023-05-21T07:02:23.632Z,53.70
2023-05-21T07:04:50.441Z,54.70
2023-05-21T07:07:19.656Z,55.70
2023-05-21T07:09:47.006Z,54.60
2023-05-21T07:12:13.607Z,54.90
2023-05-21T07:14:40.553Z,54.20
2023-05-21T07:17:07.652Z,53.90
2023-05-21T07:19:34.776Z,55.20
2023-05-21T07:22:01.538Z,55.90
2023-05-21T07:24:28.589Z,54.70
2023-05-21T07:26:55.567Z,54.30
2023-05-21T07:29:22.226Z,55.70
2023-05-21T07:31:48.881Z,55.20
2023-05-21T07:34:15.962Z,53.60
2023-05-21T07:36:45.579Z,53.70
2023-05-21T07:39:12.650Z,53.90
2023-05-21T07:41:39.445Z,54.30
2023-05-21T07:44:07.152Z,52.90
2023-05-21T07:46:33.908Z,51.80
2023-05-21T07:49:01.943Z,51.50
2023-05-21T07:51:28.838Z,52.10
2023-05-21T07:53:56.454Z,51.50
2023-05-21T07:56:23.234Z,52.30
2023-05-21T07:58:50.700Z,51.60
2023-05-21T08:01:17.477Z,50.90
2023-05-21T08:03:44.669Z,51.80
2023-05-21T08:06:11.701Z,51.70
2023-05-21T08:08:38.383Z,52.10
2023-05-21T08:11:05.398Z,51.30
2023-05-21T08:13:32.073Z,51.80
2023-05-21T08:15:58.958Z,52.10
2023-05-21T08:18:25.711Z,51.40
2023-05-21T08:20:52.593Z,51.60
2023-05-21T08:23:19.584Z,51.40
2023-05-21T08:25:48.779Z,52.20
2023-05-21T08:28:16.659Z,50.60
2023-05-21T08:30:46.201Z,50.50
2023-05-21T08:33:20.992Z,51.40
2023-05-21T08:35:48.409Z,50.30
2023-05-21T08:38:23.951Z,51.10
2023-05-21T08:40:51.311Z,50.50
2023-05-21T08:43:26.729Z,50.00
2023-05-21T08:45:57.157Z,49.30
2023-05-21T08:48:25.527Z,48.40
2023-05-21T08:50:58.042Z,48.00
2023-05-21T08:56:24.331Z,46.30
2023-05-21T08:59:01.613Z,47.70
2023-05-21T09:01:35.263Z,46.90
2023-05-21T09:04:18.901Z,43.00
2023-05-21T09:06:47.706Z,43.10
2023-05-21T09:09:27.600Z,43.40
2023-05-21T09:11:54.518Z,42.80
2023-05-21T09:14:21.475Z,41.00
2023-05-21T09:16:48.810Z,42.20
2023-05-21T09:19:15.721Z,42.40
2023-05-21T09:21:42.771Z,43.20
2023-05-21T09:24:09.575Z,42.00
2023-05-21T09:29:08.153Z,40.00
2023-05-21T09:31:34.848Z,38.90
2023-05-21T09:34:01.511Z,39.70
2023-05-21T09:36:29.587Z,39.20
2023-05-21T09:38:58.327Z,41.30
2023-05-21T09:41:31.567Z,38.70
2023-05-21T09:44:01.667Z,38.10
2023-05-21T09:46:37.669Z,40.60
2023-05-21T09:49:04.373Z,39.20
2023-05-21T09:54:22.669Z,40.50
2023-05-21T09:56:49.637Z,40.30
2023-05-21T09:59:17.017Z,40.40
2023-05-21T10:01:45.804Z,39.80
2023-05-21T10:04:13.028Z,38.10
2023-05-21T10:06:43.797Z,39.20
2023-05-21T10:09:11.214Z,37.10
2023-05-21T10:11:39.573Z,37.70
2023-05-21T10:14:11.751Z,38.10
2023-05-21T10:16:38.529Z,36.20
2023-05-21T10:19:11.032Z,37.20
2023-05-21T10:21:39.700Z,38.40
2023-05-21T10:24:07.589Z,37.90
2023-05-21T10:26:34.315Z,39.10
2023-05-21T10:29:02.286Z,37.20
2023-05-21T10:31:29.402Z,38.60
2023-05-21T10:33:56.300Z,37.60
2023-05-21T10:36:24.366Z,38.20
2023-05-21T10:38:51.037Z,37.80
2023-05-21T10:41:19.149Z,39.40
2023-05-21T10:43:51.992Z,37.50
2023-05-21T10:46:27.976Z,36.00
2023-05-21T10:49:18.024Z,36.70
2023-05-21T10:51:54.135Z,36.60
2023-05-21T10:54:30.504Z,37.50
2023-05-21T10:57:07.650Z,38.40
2023-05-21T10:59:45.354Z,37.10
2023-05-21T11:02:13.533Z,39.10
2023-05-21T11:04:42.697Z,38.50
2023-05-21T11:07:09.348Z,35.10
2023-05-21T11:09:36.256Z,36.40
2023-05-21T11:12:04.869Z,36.80
2023-05-21T11:14:35.988Z,36.90
2023-05-21T11:17:03.844Z,37.00
2023-05-21T11:19:41.073Z,36.90
2023-05-21T11:22:09.284Z,37.00
2023-05-21T11:24:41.526Z,38.20
2023-05-21T11:27:08.676Z,37.30
2023-05-21T11:29:42.838Z,37.20
2023-05-21T11:32:10.387Z,38.10
2023-05-21T11:34:46.547Z,37.00
2023-05-21T11:37:17.062Z,38.00
2023-05-21T11:39:50.601Z,36.90
2023-05-21T11:42:30.624Z,35.80
2023-05-21T11:45:00.680Z,37.70
2023-05-21T11:47:27.779Z,35.90
2023-05-21T11:49:55.215Z,36.60
2023-05-21T11:52:21.942Z,33.50
2023-05-21T11:54:55.543Z,34.80
2023-05-21T11:57:22.648Z,35.10
2023-05-21T11:59:51.677Z,32.70
2023-05-21T12:02:19.505Z,33.00
2023-05-21T12:04:48.660Z,34.40
2023-05-21T12:07:16.555Z,35.40
2023-05-21T12:09:47.259Z,34.70
2023-05-21T12:12:24.952Z,34.60
2023-05-21T12:14:55.791Z,31.90
2023-05-21T12:17:23.626Z,34.30
2023-05-21T12:19:54.194Z,35.40
2023-05-21T12:22:21.351Z,35.50
2023-05-21T12:24:48.785Z,36.10
2023-05-21T12:27:16.912Z,35.00
2023-05-21T12:29:44.834Z,34.50
2023-05-21T12:32:13.038Z,34.10
2023-05-21T12:34:40.656Z,33.00
2023-05-21T12:37:07.812Z,34.60
2023-05-21T12:39:37.825Z,31.80
2023-05-21T12:42:05.076Z,34.30
2023-05-21T12:44:32.102Z,33.50
2023-05-21T12:46:59.537Z,34.20
2023-05-21T12:49:42.566Z,33.30
2023-05-21T12:52:10.154Z,33.80
2023-05-21T12:54:38.697Z,33.70
2023-05-21T12:57:11.215Z,32.60
2023-05-21T12:59:50.446Z,33.10
2023-05-21T13:02:38.402Z,33.60
2023-05-21T13:05:06.430Z,33.30
2023-05-21T13:07:33.995Z,32.60
2023-05-21T13:10:01.408Z,33.10
2023-05-21T13:12:31.839Z,33.00
2023-05-21T13:14:59.209Z,32.70
2023-05-21T13:17:26.519Z,32.80
2023-05-21T13:20:12.668Z,31.20
2023-05-21T13:22:42.638Z,29.40
2023-05-21T13:25:15.507Z,28.70
2023-05-21T13:27:42.435Z,28.70
2023-05-21T13:30:09.632Z,28.80
2023-05-21T13:32:36.565Z,29.10
2023-05-21T13:35:03.326Z,29.60
2023-05-21T13:37:30.730Z,29.00
2023-05-21T13:39:57.592Z,28.80
2023-05-21T13:42:24.856Z,30.20
2023-05-21T13:44:51.484Z,30.50
2023-05-21T13:47:18.255Z,28.90
2023-05-21T13:49:44.999Z,30.70
2023-05-21T13:52:12.051Z,28.60
2023-05-21T13:54:38.704Z,29.20
2023-05-21T13:57:05.692Z,30.20
2023-05-21T13:59:33.794Z,29.20
2023-05-21T14:02:00.855Z,31.30
2023-05-21T14:04:27.699Z,28.20
2023-05-21T14:06:54.640Z,30.20
2023-05-21T14:09:23.282Z,31.40
2023-05-21T14:11:49.963Z,30.50
2023-05-21T14:14:19.072Z,30.00
2023-05-21T14:16:49.554Z,28.60
2023-05-21T14:19:16.648Z,31.10
2023-05-21T14:21:43.729Z,29.80
2023-05-21T14:24:10.583Z,29.90
2023-05-21T14:26:40.138Z,29.30
2023-05-21T14:29:07.423Z,29.90
2023-05-21T14:31:34.041Z,31.50
2023-05-21T14:34:02.054Z,29.40
2023-05-21T14:36:29.152Z,28.80
2023-05-21T14:38:56.089Z,30.30
2023-05-21T14:41:29.467Z,29.80
2023-05-21T14:43:56.157Z,29.40
2023-05-21T14:46:23.059Z,28.30
2023-05-21T14:48:49.976Z,29.20
2023-05-21T14:51:16.998Z,29.90
2023-05-21T14:53:43.728Z,29.60
2023-05-21T14:56:10.600Z,28.50
2023-05-21T14:58:38.461Z,28.10
2023-05-21T15:01:05.233Z,29.40
2023-05-21T15:03:32.107Z,28.80
2023-05-21T15:05:59.033Z,30.70
2023-05-21T15:08:25.789Z,29.70
2023-05-21T15:10:52.701Z,29.80
2023-05-21T15:13:19.453Z,29.00
2023-05-21T15:15:46.227Z,30.10
2023-05-21T15:18:13.129Z,29.80
2023-05-21T15:20:39.841Z,29.50
2023-05-21T15:23:16.910Z,31.00
2023-05-21T15:25:43.929Z,30.80
2023-05-21T15:28:11.999Z,32.00
2023-05-21T15:30:38.908Z,32.60
2023-05-21T15:33:06.100Z,35.30
2023-05-21T15:35:33.033Z,35.90
2023-05-21T15:37:59.969Z,36.60
2023-05-21T15:40:27.346Z,37.00
2023-05-21T15:42:54.502Z,36.50
2023-05-21T15:45:21.356Z,36.90
2023-05-21T15:47:48.147Z,37.10
2023-05-21T15:50:14.934Z,38.50
2023-05-21T15:52:41.902Z,37.80
2023-05-21T15:55:09.920Z,38.00
2023-05-21T15:57:38.023Z,39.50
2023-05-21T16:00:11.393Z,38.80
2023-05-21T16:02:38.596Z,38.90
2023-05-21T16:05:05.562Z,39.10
2023-05-21T16:07:32.441Z,39.70
2023-05-21T16:09:59.128Z,38.80
2023-05-21T16:12:29.114Z,39.00
2023-05-21T16:14:56.960Z,39.20
2023-05-21T16:17:24.386Z,39.30
2023-05-21T16:19:51.367Z,39.20
2023-05-21T16:22:20.210Z,39.20
2023-05-21T16:24:48.231Z,40.20
2023-05-21T16:27:14.965Z,40.90
2023-05-21T16:29:42.954Z,41.70
2023-05-21T16:32:12.987Z,42.20
2023-05-21T16:34:41.349Z,41.30
2023-05-21T16:37:09.607Z,41.20
2023-05-21T16:39:36.801Z,41.40
2023-05-21T16:42:03.910Z,41.40
2023-05-21T16:44:31.960Z,41.90
2023-05-21T16:47:02.942Z,42.40
2023-05-21T16:49:29.658Z,42.90
2023-05-21T16:51:56.592Z,42.80
2023-05-21T16:54:23.331Z,42.90
2023-05-21T16:56:50.574Z,42.10
2023-05-21T16:59:18.823Z,42.80
2023-05-21T17:01:46.511Z,43.40
2023-05-21T17:04:14.653Z,43.60
2023-05-21T17:06:41.506Z,43.60
2023-05-21T17:09:09.793Z,43.70
2023-05-21T17:11:37.692Z,44.40
2023-05-21T17:14:04.724Z,44.40
2023-05-21T17:16:31.712Z,44.70
2023-05-21T17:18:58.664Z,45.30
2023-05-21T17:21:30.217Z,45.20
2023-05-21T17:23:57.248Z,45.30
2023-05-21T17:26:26.790Z,45.50
2023-05-21T17:28:54.553Z,46.20
2023-05-21T17:31:22.618Z,46.50
2023-05-21T17:33:51.081Z,46.40
2023-05-21T17:36:17.774Z,46.30
2023-05-21T17:38:44.519Z,47.00
2023-05-21T17:41:11.251Z,47.00
2023-05-21T17:43:38.108Z,46.80
2023-05-21T17:46:04.886Z,47.50
2023-05-21T17:48:33.855Z,48.30
2023-05-21T17:51:00.771Z,48.30
2023-05-21T17:53:27.564Z,48.40
2023-05-21T17:55:56.981Z,48.50
2023-05-21T17:58:24.976Z,48.30
2023-05-21T18:00:51.768Z,48.60
2023-05-21T18:03:18.448Z,49.30
2023-05-21T18:05:45.455Z,49.10
2023-05-21T18:08:12.224Z,49.50
2023-05-21T18:10:39.646Z,49.50
2023-05-21T18:13:08.267Z,49.90
2023-05-21T18:15:35.497Z,51.30
2023-05-21T18:18:05.122Z,50.50
2023-05-21T18:20:32.137Z,50.60
2023-05-21T18:22:59.245Z,50.20
2023-05-21T18:25:26.268Z,51.20
2023-05-21T18:27:52.923Z,51.30
2023-05-21T18:30:19.738Z,50.80
2023-05-21T18:32:46.502Z,51.00
2023-05-21T18:35:15.784Z,51.40
2023-05-21T18:37:44.602Z,51.40
2023-05-21T18:40:13.133Z,51.20
2023-05-21T18:42:40.436Z,52.10
2023-05-21T18:45:09.066Z,52.20
2023-05-21T18:47:39.072Z,52.30
2023-05-21T18:50:15.335Z,52.60
2023-05-21T18:52:44.546Z,53.00
2023-05-21T18:55:12.660Z,53.00
2023-05-21T18:57:39.789Z,53.00
2023-05-21T19:00:09.576Z,53.20
2023-05-21T19:02:37.257Z,53.40
2023-05-21T19:05:17.410Z,54.00
2023-05-21T19:07:44.205Z,54.20
2023-05-21T19:10:11.292Z,54.10
2023-05-21T19:12:39.490Z,55.00
2023-05-21T19:15:07.013Z,54.80
2023-05-21T19:17:35.086Z,55.10
2023-05-21T19:20:02.942Z,55.00
2023-05-21T19:22:32.038Z,55.60
2023-05-21T19:25:00.242Z,55.50
2023-05-21T19:27:29.342Z,55.70
2023-05-21T19:29:56.340Z,55.60
2023-05-21T19:32:23.866Z,56.50
2023-05-21T19:34:59.385Z,56.90
2023-05-21T19:37:26.608Z,56.70
2023-05-21T19:39:53.356Z,56.80
2023-05-21T19:42:22.575Z,57.20
2023-05-21T19:44:49.478Z,57.40
2023-05-21T19:47:16.804Z,58.00
2023-05-21T19:49:43.466Z,58.20
2023-05-21T19:52:10.525Z,58.00
2023-05-21T19:54:37.407Z,58.40
2023-05-21T19:57:04.179Z,58.40
2023-05-21T19:59:31.266Z,59.30
2023-05-21T20:01:57.983Z,59.50
2023-05-21T20:04:27.744Z,60.00
2023-05-21T20:06:56.444Z,60.00
2023-05-21T20:09:23.168Z,60.10
2023-05-21T20:11:49.909Z,60.10
2023-05-21T20:14:17.028Z,60.20
2023-05-21T20:16:47.810Z,60.20
2023-05-21T20:19:15.947Z,60.80
2023-05-21T20:21:44.141Z,60.60
2023-05-21T20:24:12.386Z,60.70
2023-05-21T20:26:39.847Z,61.40
2023-05-21T20:29:08.178Z,61.50
2023-05-21T20:31:37.297Z,61.00
2023-05-21T20:34:07.907Z,61.70
2023-05-21T20:36:35.718Z,61.00
2023-05-21T20:39:02.571Z,61.60
2023-05-21T20:41:35.696Z,62.50
2023-05-21T20:44:05.020Z,61.70
2023-05-21T20:46:38.483Z,62.00
2023-05-21T20:49:06.912Z,62.00
2023-05-21T20:51:33.839Z,62.00
2023-05-21T20:54:00.765Z,62.50
2023-05-21T20:56:40.750Z,62.80
2023-05-21T20:59:10.593Z,63.20
2023-05-21T21:01:40.529Z,63.20
2023-05-21T21:04:10.092Z,63.60
2023-05-21T21:06:38.673Z,63.80
2023-05-21T21:09:05.544Z,64.20
2023-05-21T21:11:32.544Z,63.80
2023-05-21T21:14:01.602Z,64.10
2023-05-21T21:16:28.479Z,64.40
2023-05-21T21:18:55.985Z,64.30
2023-05-21T21:21:22.751Z,64.60
2023-05-21T21:23:50.594Z,65.00
2023-05-21T21:26:17.989Z,64.90
2023-05-21T21:28:46.520Z,65.50
2023-05-21T21:31:13.480Z,65.90
2023-05-21T21:33:40.115Z,65.70
2023-05-21T21:36:07.787Z,65.90
2023-05-21T21:38:34.842Z,65.80
2023-05-21T21:41:01.845Z,66.40
2023-05-21T21:43:29.962Z,66.80
2023-05-21T21:46:01.127Z,66.10
2023-05-21T21:48:28.133Z,67.00
2023-05-21T21:50:54.829Z,67.30
2023-05-21T21:53:23.104Z,67.70
2023-05-21T21:55:51.663Z,67.10
2023-05-21T21:58:18.391Z,68.20
2023-05-21T22:00:45.428Z,67.70
2023-05-21T22:03:14.571Z,68.20
2023-05-21T22:05:42.587Z,68.10
2023-05-21T22:08:09.471Z,68.20
2023-05-21T22:10:39.297Z,68.00
2023-05-21T22:13:09.161Z,69.30
2023-05-21T22:15:36.128Z,68.80
2023-05-21T22:18:03.315Z,69.70
2023-05-21T22:20:30.344Z,69.40
2023-05-21T22:22:59.004Z,69.40
2023-05-21T22:25:27.190Z,69.10
2023-05-21T22:27:54.203Z,68.90
2023-05-21T22:30:21.024Z,69.90
2023-05-21T22:32:48.199Z,70.00
2023-05-21T22:35:17.104Z,70.10
2023-05-21T22:37:43.805Z,70.10
2023-05-21T22:40:10.791Z,70.40
2023-05-21T22:42:38.209Z,71.50
2023-05-21T22:45:06.751Z,72.30
2023-05-21T22:47:33.495Z,72.50
2023-05-21T22:50:01.968Z,72.30
2023-05-21T22:52:30.019Z,72.70
2023-05-21T22:55:00.363Z,72.00
2023-05-21T22:57:27.839Z,74.30
2023-05-21T22:59:54.977Z,73.60
2023-05-21T23:02:21.670Z,73.70
2023-05-21T23:04:50.168Z,75.00
2023-05-21T23:07:16.829Z,74.90
2023-05-21T23:09:44.730Z,73.90
2023-05-21T23:12:12.264Z,74.70
2023-05-21T23:14:39.020Z,74.80
2023-05-21T23:17:07.731Z,74.50
2023-05-21T23:19:34.621Z,76.20
2023-05-21T23:22:01.369Z,77.40
2023-05-21T23:24:29.705Z,76.60
2023-05-21T23:27:01.655Z,76.40
2023-05-21T23:29:29.138Z,76.60
2023-05-21T23:31:56.032Z,76.60
2023-05-21T23:34:24.943Z,76.10
2023-05-21T23:36:51.720Z,77.30
2023-05-21T23:39:18.588Z,77.20
2023-05-21T23:41:45.534Z,76.70
2023-05-21T23:44:13.111Z,77.00
2023-05-21T23:46:39.939Z,76.90
2023-05-21T23:49:06.613Z,76.80
2023-05-21T23:51:33.547Z,78.10
2023-05-21T23:54:00.529Z,78.80
2023-05-21T23:56:27.554Z,77.90
2023-05-21T23:58:54.193Z,78.40
